LICA/SUF METAR and TAF weather

Enter ICAO airport designator
Station Type Date Time Source
LICA METAR 2019/12/09 05:50 UTC NOAA

LICA 090550Z 06005KT 010V080 9999 FEW020 07/07 Q1015


Station Type Date Time Source
LICA Decoded METAR 2019/12/09 05:50 UTC NOAA

Lamezia Terme, Italy (LICA) 38-54N 016-15E
Dec 09, 2019 - 12:50 AM EST / 2019.12.09 0550 UTC
Wind: from the ENE (060 degrees) at 6 MPH (5 KT) (direction variable):0
Visibility: greater than 7 mile(s):0
Sky conditions: mostly clear
Temperature: 44 F (7 C)
Dew Point: 44 F (7 C)
Relative Humidity: 100%
Pressure (altimeter): 29.97 in. Hg (1015 hPa)
ob: LICA 090550Z 06005KT 010V080 9999 FEW020 07/07 Q1015
cycle: 6

Station Type Date Time Source
LICA TAF 2019/12/09 06:21 UTC NOAA

TAF LICA 090500Z 0906/1006 08007KT 9999 SCT020
BECMG 0910/0912 27012KT
TEMPO 0915/1006 4000 TSRA

Example: see airport list